createdAt,value
2019-03-04T00:00:45.738Z,19.8
2019-03-04T00:01:36.122Z,19.8
2019-03-04T00:02:25.319Z,19.8
2019-03-04T00:03:16.505Z,19.8
2019-03-04T00:04:06.537Z,19.8
2019-03-04T00:04:55.757Z,19.8
2019-03-04T00:05:44.996Z,19.8
2019-03-04T00:06:35.622Z,19.8
2019-03-04T00:07:25.446Z,19.7
2019-03-04T00:08:15.986Z,19.7
2019-03-04T00:09:06.604Z,19.7
2019-03-04T00:09:56.675Z,19.7
2019-03-04T00:10:46.045Z,19.6
2019-03-04T00:11:35.761Z,19.7
2019-03-04T00:12:26.398Z,19.6
2019-03-04T00:13:15.929Z,19.6
2019-03-04T00:14:06.549Z,19.6
2019-03-04T00:14:57.369Z,19.6
2019-03-04T00:15:46.529Z,19.6
2019-03-04T00:16:37.443Z,19.6
2019-03-04T00:17:26.739Z,19.6
2019-03-04T00:18:17.303Z,19.6
2019-03-04T00:19:07.348Z,19.6
2019-03-04T00:19:56.873Z,19.6
2019-03-04T00:20:47.455Z,19.6
2019-03-04T00:21:37.686Z,19.7
2019-03-04T00:22:27.849Z,19.7
2019-03-04T00:23:17.401Z,19.7
2019-03-04T00:24:07.425Z,19.7
2019-03-04T00:24:57.793Z,19.7
2019-03-04T00:25:48.095Z,19.7
2019-03-04T00:26:37.645Z,19.6
2019-03-04T00:27:27.673Z,19.6
2019-03-04T00:28:17.413Z,19.6
2019-03-04T00:29:07.475Z,19.6
2019-03-04T00:29:58.360Z,19.7
2019-03-04T00:30:48.141Z,19.6
2019-03-04T00:31:37.650Z,19.6
2019-03-04T00:32:28.531Z,19.6
2019-03-04T00:33:17.488Z,19.6
2019-03-04T00:34:08.370Z,19.6
2019-03-04T00:34:57.926Z,19.7
2019-03-04T00:35:48.487Z,19.7
2019-03-04T00:36:37.443Z,19.7
2019-03-04T00:37:28.353Z,19.8
2019-03-04T00:38:18.415Z,19.8
2019-03-04T00:39:08.169Z,19.9
2019-03-04T00:39:58.783Z,20
2019-03-04T00:40:48.582Z,20.1
2019-03-04T00:41:38.398Z,20.1
2019-03-04T00:42:28.408Z,20.1
2019-03-04T00:43:18.484Z,20.1
2019-03-04T00:44:08.509Z,20.1
2019-03-04T00:44:58.914Z,20.2
2019-03-04T00:45:48.977Z,20.2
2019-03-04T00:46:38.987Z,20.2
2019-03-04T00:47:29.330Z,20.1
2019-03-04T00:48:19.409Z,20.1
2019-03-04T00:49:09.188Z,20.1
2019-03-04T00:50:00.914Z,20.1
2019-03-04T00:50:48.994Z,20
2019-03-04T00:51:39.651Z,20
2019-03-04T00:52:29.135Z,19.9
2019-03-04T00:53:20.050Z,19.9
2019-03-04T00:54:09.337Z,19.9
2019-03-04T00:54:59.854Z,19.9
2019-03-04T00:55:50.168Z,19.9
2019-03-04T00:56:39.959Z,19.9
2019-03-04T00:57:30.031Z,19.9
2019-03-04T00:58:19.526Z,20
2019-03-04T00:59:09.856Z,20.1
2019-03-04T00:59:59.638Z,20.1
2019-03-04T01:00:49.990Z,20.2
2019-03-04T01:01:39.771Z,20.3
2019-03-04T01:02:29.521Z,20.3
2019-03-04T01:03:19.958Z,20.4
2019-03-04T01:04:10.491Z,20.4
2019-03-04T01:04:59.451Z,20.5
2019-03-04T01:05:50.320Z,20.5
2019-03-04T01:06:40.955Z,20.5
2019-03-04T01:07:29.900Z,20.5
2019-03-04T01:08:20.240Z,20.6
2019-03-04T01:09:10.564Z,20.6
2019-03-04T01:10:50.186Z,20.6
2019-03-04T01:11:40.805Z,20.6
2019-03-04T01:12:31.387Z,20.6
2019-03-04T01:13:20.867Z,20.7
2019-03-04T01:14:10.653Z,20.8
2019-03-04T01:15:01.973Z,20.8
2019-03-04T01:15:50.546Z,20.8
2019-03-04T01:16:41.093Z,20.9
2019-03-04T01:17:30.875Z,20.9
2019-03-04T01:18:20.977Z,21
2019-03-04T01:19:11.551Z,21.1
2019-03-04T01:20:01.770Z,21.1
2019-03-04T01:21:41.727Z,21.2
2019-03-04T01:22:32.101Z,21.3
2019-03-04T01:23:21.847Z,21.3
2019-03-04T01:24:11.392Z,21.3
2019-03-04T01:25:01.765Z,21.4
2019-03-04T01:25:52.067Z,21.4
2019-03-04T01:26:42.367Z,21.4
2019-03-04T01:27:31.852Z,21.4
2019-03-04T01:28:21.639Z,21.5
2019-03-04T01:29:11.761Z,21.5
2019-03-04T01:30:02.457Z,21.5
2019-03-04T01:30:52.092Z,21.5
2019-03-04T01:31:44.142Z,21.4
2019-03-04T01:32:32.204Z,21.4
2019-03-04T01:33:22.580Z,21.4
2019-03-04T01:34:12.628Z,21.4
2019-03-04T01:35:02.758Z,21.4
2019-03-04T01:35:53.253Z,21.4
2019-03-04T01:36:42.519Z,21.4
2019-03-04T01:37:32.281Z,21.4
2019-03-04T01:38:22.628Z,21.4
2019-03-04T01:39:13.230Z,21.4
2019-03-04T01:40:02.454Z,21.3
2019-03-04T01:40:53.656Z,21.3
2019-03-04T01:41:43.171Z,21.3
2019-03-04T01:42:33.198Z,21.3
2019-03-04T01:43:23.059Z,21.3
2019-03-04T01:44:13.056Z,21.3
2019-03-04T01:45:02.738Z,21.3
2019-03-04T01:45:53.703Z,21.2
2019-03-04T01:46:43.546Z,21.2
2019-03-04T01:47:33.538Z,21.2
2019-03-04T01:50:52.939Z,21.1
2019-03-04T01:51:43.831Z,21.1
2019-03-04T01:52:33.963Z,21.1
2019-03-04T01:53:24.280Z,21.1
2019-03-04T01:54:13.185Z,21
2019-03-04T01:55:03.908Z,21
2019-03-04T01:55:54.377Z,21
2019-03-04T01:56:44.498Z,21
2019-03-04T01:57:33.960Z,20.9
2019-03-04T01:58:24.343Z,20.9
2019-03-04T01:59:13.780Z,20.9
2019-03-04T02:00:03.405Z,20.9
2019-03-04T02:00:54.187Z,20.9
2019-03-04T02:01:44.333Z,20.9
2019-03-04T02:02:34.920Z,20.9
2019-03-04T02:03:24.162Z,20.9
2019-03-04T02:04:13.597Z,20.9
2019-03-04T02:05:05.351Z,21
2019-03-04T02:05:54.004Z,21.1
2019-03-04T02:06:44.620Z,21.1
2019-03-04T02:08:24.760Z,21.2
2019-03-04T02:09:14.815Z,21.2
2019-03-04T02:10:04.557Z,21.3
2019-03-04T02:10:55.182Z,21.3
2019-03-04T02:11:45.222Z,21.3
2019-03-04T02:12:35.855Z,21.4
2019-03-04T02:13:24.807Z,21.4
2019-03-04T02:14:14.924Z,21.4
2019-03-04T02:15:06.144Z,21.5
2019-03-04T02:15:54.794Z,21.5
2019-03-04T02:16:45.309Z,21.6
2019-03-04T02:17:34.566Z,21.6
2019-03-04T02:18:25.724Z,21.6
2019-03-04T02:19:15.794Z,21.6
2019-03-04T02:20:05.191Z,21.6
2019-03-04T02:20:55.899Z,21.6
2019-03-04T02:21:45.647Z,21.5
2019-03-04T02:22:35.719Z,21.5
2019-03-04T02:23:25.589Z,21.5
2019-03-04T02:24:15.057Z,21.5
2019-03-04T02:25:06.236Z,21.4
2019-03-04T02:25:55.494Z,21.4
2019-03-04T02:26:45.798Z,21.4
2019-03-04T02:27:35.411Z,21.4
2019-03-04T02:28:25.304Z,21.4
2019-03-04T02:29:16.204Z,21.4
2019-03-04T02:30:06.513Z,21.3
2019-03-04T02:30:56.982Z,21.3
2019-03-04T02:31:47.009Z,21.3
2019-03-04T02:32:36.494Z,21.3
2019-03-04T02:33:25.814Z,21.3
2019-03-04T02:34:17.313Z,21.3
2019-03-04T02:35:06.588Z,21.3
2019-03-04T02:35:55.666Z,21.2
2019-03-04T02:36:47.409Z,21.2
2019-03-04T02:37:37.191Z,21.2
2019-03-04T02:40:57.091Z,21.1
2019-03-04T02:41:47.984Z,21.1
2019-03-04T02:42:38.011Z,21.1
2019-03-04T02:43:27.273Z,21
2019-03-04T02:44:17.624Z,21.1
2019-03-04T02:45:07.675Z,21
2019-03-04T02:45:57.215Z,21
2019-03-04T02:46:48.401Z,21
2019-03-04T02:47:38.126Z,20.9
2019-03-04T02:48:27.736Z,20.9
2019-03-04T02:49:18.291Z,20.9
2019-03-04T02:50:07.998Z,20.9
2019-03-04T02:50:57.880Z,21
2019-03-04T02:51:47.850Z,21
2019-03-04T02:52:38.031Z,21.1
2019-03-04T02:54:17.890Z,21.2
2019-03-04T02:55:08.110Z,21.2
2019-03-04T02:55:58.170Z,21.3
2019-03-04T02:56:48.794Z,21.3
2019-03-04T02:57:37.963Z,21.3
2019-03-04T02:58:28.165Z,21.4
2019-03-04T02:59:18.439Z,21.4
2019-03-04T03:00:08.028Z,21.4
2019-03-04T03:00:59.352Z,21.4
2019-03-04T03:01:48.316Z,21.5
2019-03-04T03:02:38.041Z,21.5
2019-03-04T03:03:28.795Z,21.5
2019-03-04T03:04:19.032Z,21.5
2019-03-04T06:05:50.325Z,20.6
2019-03-04T06:06:41.214Z,20.6
2019-03-04T06:07:31.334Z,20.6
2019-03-04T06:08:21.069Z,20.6
2019-03-04T06:09:10.294Z,20.6
2019-03-04T06:10:00.803Z,20.6
2019-03-04T06:10:50.449Z,20.6
2019-03-04T06:11:40.722Z,20.5
2019-03-04T06:12:30.214Z,20.6
2019-03-04T06:13:20.597Z,20.5
2019-03-04T06:14:11.467Z,20.5
2019-03-04T06:15:01.809Z,20.6
2019-03-04T06:15:50.793Z,20.5
2019-03-04T06:16:51.267Z,20.6
2019-03-04T06:17:30.864Z,20.6
2019-03-04T06:18:21.234Z,20.6
2019-03-04T06:19:11.798Z,20.6
2019-03-04T06:20:01.266Z,20.6
2019-03-04T06:20:51.376Z,20.6
2019-03-04T06:21:41.733Z,20.6
2019-03-04T06:22:31.747Z,20.7
2019-03-04T06:23:21.544Z,20.7
2019-03-04T06:24:11.916Z,20.7
2019-03-04T06:25:01.755Z,20.7
2019-03-04T06:25:52.508Z,20.8
2019-03-04T06:26:41.833Z,20.7
2019-03-04T06:27:32.136Z,20.7
2019-03-04T06:28:21.354Z,20.7
2019-03-04T06:29:12.237Z,20.7
2019-03-04T06:30:01.484Z,20.7
2019-03-04T06:30:54.620Z,20.7
2019-03-04T06:31:41.923Z,20.6
2019-03-04T06:32:33.036Z,20.6
2019-03-04T06:33:22.835Z,20.6
2019-03-04T06:34:11.543Z,20.6
2019-03-04T06:35:02.666Z,20.6
2019-03-04T06:35:52.423Z,20.6
2019-03-04T06:36:42.013Z,20.6
2019-03-04T06:37:32.070Z,20.6
2019-03-04T06:38:22.685Z,20.6
2019-03-04T06:39:12.175Z,20.6
2019-03-04T06:40:02.542Z,20.6
2019-03-04T06:40:52.608Z,20.6
2019-03-04T06:41:42.957Z,20.6
2019-03-04T06:42:32.468Z,20.6
2019-03-04T06:43:21.894Z,20.7
2019-03-04T06:44:13.542Z,20.7
2019-03-04T06:45:03.411Z,20.7
2019-03-04T06:45:53.134Z,20.7
2019-03-04T06:46:43.852Z,20.7
2019-03-04T06:47:33.777Z,20.8
2019-03-04T06:48:23.028Z,20.8
2019-03-04T06:49:13.680Z,20.8
2019-03-04T06:50:03.675Z,20.8
2019-03-04T06:50:54.412Z,20.8
2019-03-04T06:51:42.977Z,20.8
2019-03-04T06:52:33.902Z,20.8
2019-03-04T06:53:24.251Z,20.8
2019-03-04T06:54:13.699Z,20.8
2019-03-04T06:55:03.912Z,20.8
2019-03-04T06:55:53.822Z,20.8
2019-03-04T06:56:43.631Z,20.9
2019-03-04T06:57:35.744Z,20.8
2019-03-04T06:58:24.567Z,20.9
2019-03-04T06:59:14.046Z,20.9
2019-03-04T07:00:04.099Z,20.9
2019-03-04T07:00:54.544Z,20.9
2019-03-04T07:01:44.273Z,20.9
2019-03-04T07:02:35.107Z,20.9
2019-03-04T07:03:24.074Z,20.9
2019-03-04T07:05:50.303Z,20.9
2019-03-04T07:06:40.381Z,20.9
2019-03-04T07:07:30.409Z,20.9
2019-03-04T07:08:20.738Z,20.9
2019-03-04T07:09:10.833Z,20.9
2019-03-04T07:10:00.874Z,20.9
2019-03-04T07:10:49.807Z,20.9
2019-03-04T07:11:41.323Z,20.9
2019-03-04T07:12:31.288Z,20.9
2019-03-04T07:13:20.298Z,20.9
2019-03-04T07:14:10.892Z,20.9
2019-03-04T07:15:00.811Z,20.9
2019-03-04T07:15:50.443Z,20.9
2019-03-04T07:16:41.393Z,20.9
2019-03-04T07:17:31.103Z,20.9
2019-03-04T07:18:20.933Z,20.9
2019-03-04T07:19:10.978Z,20.9
2019-03-04T07:20:02.283Z,20.9
2019-03-04T07:20:51.630Z,20.9
2019-03-04T07:21:41.465Z,20.8
2019-03-04T07:22:31.735Z,20.8
2019-03-04T07:23:21.513Z,20.8
2019-03-04T07:24:12.210Z,20.9
2019-03-04T07:25:00.938Z,20.9
2019-03-04T07:25:51.669Z,20.9
2019-03-04T07:26:41.518Z,20.9
2019-03-04T07:27:31.312Z,20.9
2019-03-04T07:28:22.688Z,21
2019-03-04T07:29:12.201Z,21
2019-03-04T07:30:01.690Z,21.1
2019-03-04T07:30:51.538Z,21.1
2019-03-04T07:35:02.277Z,21.2
2019-03-04T07:35:52.924Z,21.2
2019-03-04T07:36:42.441Z,21.2
2019-03-04T07:37:33.044Z,21.2
2019-03-04T07:38:22.791Z,21.2
2019-03-04T07:39:12.619Z,21.2
2019-03-04T07:40:03.249Z,21.2
2019-03-04T07:40:52.997Z,21.2
2019-03-04T07:41:42.797Z,21.2
2019-03-04T07:56:44.687Z,21.1
2019-03-04T07:57:34.446Z,21.1
2019-03-04T07:58:26.536Z,21.1
2019-03-04T07:59:14.608Z,21.1
2019-03-04T08:00:04.851Z,21.1
2019-03-04T08:00:54.001Z,21.1
2019-03-04T08:01:44.181Z,21
2019-03-04T08:02:33.958Z,21
2019-03-04T08:03:24.025Z,21
2019-03-04T08:04:13.821Z,21
2019-03-04T08:05:04.185Z,20.9
2019-03-04T08:05:53.805Z,20.9
2019-03-04T08:06:44.377Z,20.9
2019-03-04T08:07:34.605Z,20.9
2019-03-04T08:08:25.198Z,20.9
2019-03-04T08:09:14.697Z,20.9
2019-03-04T08:10:04.265Z,20.9
2019-03-04T08:10:54.827Z,20.9
2019-03-04T08:11:44.880Z,20.9
2019-03-04T08:12:35.485Z,20.9
2019-03-04T08:13:24.531Z,20.9
2019-03-04T08:14:15.327Z,20.9
2019-03-04T08:15:05.785Z,20.9
2019-03-04T08:15:55.240Z,20.9
2019-03-04T08:16:45.812Z,20.9
2019-03-04T08:17:35.617Z,20.9
2019-03-04T08:18:24.322Z,20.9
2019-03-04T08:19:15.955Z,20.9
2019-03-04T08:20:05.505Z,20.9
2019-03-04T08:20:55.590Z,20.9
2019-03-04T08:21:45.648Z,20.9
2019-03-04T08:22:35.974Z,20.9
2019-03-04T08:23:25.715Z,20.9
2019-03-04T08:24:15.504Z,20.9
2019-03-04T08:25:06.379Z,20.9
2019-03-04T08:25:56.449Z,20.8
2019-03-04T08:26:45.127Z,20.8
2019-03-04T08:27:36.242Z,20.8
2019-03-04T08:28:26.429Z,20.8
2019-03-04T08:29:16.391Z,20.7
2019-03-04T08:30:06.489Z,20.7
2019-03-04T08:30:56.810Z,20.7
2019-03-04T08:31:46.574Z,20.7
2019-03-04T08:32:36.696Z,20.7
2019-03-04T08:33:26.884Z,20.7
2019-03-04T08:34:17.048Z,20.6
2019-03-04T08:35:06.511Z,20.6
2019-03-04T08:35:56.609Z,20.6
2019-03-04T08:36:46.362Z,20.6
2019-03-04T08:37:36.959Z,20.7
2019-03-04T08:38:25.726Z,20.6
2019-03-04T08:39:16.826Z,20.6
2019-03-04T08:40:06.681Z,20.6
2019-03-04T08:40:57.471Z,20.6
2019-03-04T08:41:47.271Z,20.6
2019-03-04T08:42:37.595Z,20.6
2019-03-04T08:43:26.538Z,20.5
2019-03-04T08:44:17.431Z,20.5
2019-03-04T08:45:07.577Z,20.5
2019-03-04T08:45:57.547Z,20.4
2019-03-04T08:46:48.178Z,20.4
2019-03-04T08:47:37.986Z,20.4
2019-03-04T08:48:27.226Z,20.4
2019-03-04T08:49:17.023Z,20.4
2019-03-04T08:50:07.596Z,20.4
2019-03-04T08:50:57.981Z,20.4
2019-03-04T08:51:48.260Z,20.4
2019-03-04T08:52:36.668Z,20.4
2019-03-04T08:53:28.064Z,20.4
2019-03-04T08:54:18.228Z,20.4
2019-03-04T08:55:07.970Z,20.4
2019-03-04T08:55:58.616Z,20.5
2019-03-04T08:56:48.325Z,20.5
2019-03-04T08:57:37.070Z,20.5
2019-03-04T08:58:27.380Z,20.6
2019-03-04T08:59:18.240Z,20.6
2019-03-04T09:00:07.543Z,20.6
2019-03-04T09:00:58.593Z,20.6
2019-03-04T09:01:48.680Z,20.7
2019-03-04T09:02:37.404Z,20.7
2019-03-04T09:03:28.595Z,20.8
2019-03-04T09:04:18.075Z,20.8
2019-03-04T09:05:08.439Z,20.8
2019-03-04T09:05:57.645Z,20.7
2019-03-04T09:06:48.508Z,20.7
2019-03-04T09:07:39.374Z,20.7
2019-03-04T09:08:29.232Z,20.7
2019-03-04T09:09:19.474Z,20.7
2019-03-04T09:10:09.295Z,20.6
2019-03-04T09:10:58.282Z,20.6
2019-03-04T09:11:48.885Z,20.6
2019-03-04T09:12:40.733Z,20.6
2019-03-04T09:13:29.552Z,20.6
2019-03-04T09:14:18.777Z,20.6
2019-03-04T09:15:09.147Z,20.6
2019-03-04T09:15:58.932Z,20.6
2019-03-04T09:16:49.227Z,20.6
2019-03-04T09:17:38.444Z,20.6
2019-03-04T09:18:29.106Z,20.6
2019-03-04T09:19:19.774Z,20.6
2019-03-04T09:20:09.742Z,20.6
2019-03-04T09:20:59.556Z,20.6
2019-03-04T09:21:49.851Z,20.5
2019-03-04T09:22:39.691Z,20.5
2019-03-04T09:23:29.977Z,20.4
2019-03-04T09:24:19.796Z,20.4
2019-03-04T09:25:09.571Z,20.4
2019-03-04T09:25:59.337Z,20.4
2019-03-04T09:26:49.942Z,20.4
2019-03-04T09:27:40.473Z,20.4
2019-03-04T09:28:29.796Z,20.3
2019-03-04T09:29:19.550Z,20.3
2019-03-04T09:30:09.965Z,20.3
2019-03-04T09:30:59.945Z,20.3
2019-03-04T09:31:49.969Z,20.3
2019-03-04T09:32:40.306Z,20.3
2019-03-04T09:33:30.353Z,20.3
2019-03-04T09:34:20.396Z,20.4
2019-03-04T09:35:10.750Z,20.4
2019-03-04T09:36:01.092Z,20.4
2019-03-04T09:36:50.595Z,20.4
2019-03-04T09:37:40.895Z,20.4
2019-03-04T09:38:30.665Z,20.5
2019-03-04T09:39:21.616Z,20.6
2019-03-04T09:40:11.131Z,20.6
2019-03-04T09:41:01.468Z,20.6
2019-03-04T09:41:53.791Z,20.6
2019-03-04T09:42:42.215Z,20.7
2019-03-04T09:43:31.588Z,20.7
2019-03-04T09:44:21.342Z,20.7
2019-03-04T09:45:11.483Z,20.7
2019-03-04T09:46:01.258Z,20.7
2019-03-04T09:46:51.578Z,20.6
2019-03-04T09:47:41.327Z,20.7
2019-03-04T09:48:32.192Z,20.7
2019-03-04T09:49:22.015Z,20.7
2019-03-04T09:50:12.054Z,20.8
2019-03-04T09:51:01.552Z,20.8
2019-03-04T09:51:52.753Z,20.7
2019-03-04T09:52:41.684Z,20.8
2019-03-04T09:53:45.117Z,20.8
2019-03-04T09:54:21.770Z,20.8
2019-03-04T09:55:12.430Z,20.8
2019-03-04T09:56:01.963Z,20.8
2019-03-04T09:56:52.669Z,20.8
2019-03-04T09:57:42.599Z,20.8
2019-03-04T09:58:32.413Z,20.8
2019-03-04T09:59:22.689Z,20.8
2019-03-04T10:00:13.296Z,20.8
2019-03-04T10:01:02.804Z,20.8
2019-03-04T10:01:52.874Z,20.8
2019-03-04T10:02:42.959Z,20.8
2019-03-04T10:03:32.967Z,20.8
2019-03-04T10:04:22.754Z,20.8
2019-03-04T10:06:50.730Z,20.8
2019-03-04T10:07:40.509Z,20.8
2019-03-04T10:08:39.559Z,20.8
2019-03-04T10:09:20.591Z,20.8
2019-03-04T10:10:10.737Z,20.8
2019-03-04T10:10:59.883Z,20.8
2019-03-04T10:11:49.954Z,20.8
2019-03-04T10:12:41.386Z,20.8
2019-03-04T10:13:30.871Z,20.8
2019-03-04T10:14:20.431Z,20.8
2019-03-04T10:15:14.610Z,20.9
2019-03-04T10:16:00.502Z,20.9
2019-03-04T10:16:51.709Z,20.9
2019-03-04T10:17:40.347Z,20.9
2019-03-04T10:18:30.685Z,21
2019-03-04T10:19:20.167Z,21
2019-03-04T10:20:10.798Z,21.1
2019-03-04T10:21:01.160Z,21.1
2019-03-04T10:21:53.355Z,21.1
2019-03-04T10:22:41.296Z,21.1
2019-03-04T10:23:30.748Z,21.1
2019-03-04T10:24:21.099Z,21.1
2019-03-04T10:25:11.405Z,21
2019-03-04T10:26:01.231Z,21.1
2019-03-04T10:26:51.536Z,21.1
2019-03-04T10:27:41.020Z,21.1
2019-03-04T10:28:31.660Z,21.1
2019-03-04T10:29:21.424Z,21.1
2019-03-04T10:30:12.055Z,21.1
2019-03-04T10:31:01.851Z,21.1
2019-03-04T10:31:52.440Z,21.1
2019-03-04T10:32:41.377Z,21.1
2019-03-04T10:33:32.600Z,21.1
2019-03-04T10:34:22.057Z,21.1
2019-03-04T10:35:12.686Z,21.1
2019-03-04T10:36:01.345Z,21.1
2019-03-04T10:36:52.492Z,21.1
2019-03-04T10:37:42.830Z,21
2019-03-04T10:38:31.772Z,21
2019-03-04T10:39:28.350Z,21
2019-03-04T10:40:11.647Z,20.9
2019-03-04T10:41:05.077Z,20.9
2019-03-04T10:41:52.617Z,20.9
2019-03-04T10:42:42.937Z,20.9
2019-03-04T10:43:32.427Z,20.9
2019-03-04T10:44:23.598Z,20.9
2019-03-04T10:45:12.809Z,20.9
2019-03-04T10:46:02.893Z,20.9
2019-03-04T10:46:52.948Z,20.9
2019-03-04T10:47:43.543Z,20.9
2019-03-04T10:48:33.712Z,20.8
2019-03-04T10:49:23.652Z,20.8
2019-03-04T10:50:13.159Z,20.8
2019-03-04T10:51:02.942Z,20.8
2019-03-04T10:51:53.075Z,20.8
2019-03-04T10:52:44.174Z,20.9
2019-03-04T10:53:33.751Z,20.9
2019-03-04T10:54:23.734Z,20.9
2019-03-04T10:55:13.243Z,21
2019-03-04T10:56:04.141Z,21
2019-03-04T10:56:52.924Z,21.1
2019-03-04T10:57:44.352Z,21.1
2019-03-04T10:58:33.196Z,20.9
2019-03-04T10:59:24.339Z,20.8
2019-03-04T11:00:14.201Z,20.7
2019-03-04T11:01:04.263Z,20.5
2019-03-04T11:01:56.448Z,20.4
2019-03-04T11:02:43.739Z,20.3
2019-03-04T11:03:34.416Z,20.2
2019-03-04T11:04:23.391Z,20.1
2019-03-04T11:05:13.984Z,20
2019-03-04T11:06:04.006Z,20
2019-03-04T11:06:56.643Z,19.9
2019-03-04T11:07:44.195Z,19.8
2019-03-04T11:08:34.800Z,19.8
2019-03-04T11:09:24.848Z,19.8
2019-03-04T11:10:13.793Z,19.8
2019-03-04T11:11:04.911Z,19.7
2019-03-04T11:11:55.202Z,19.7
2019-03-04T11:12:45.293Z,19.6
2019-03-04T11:13:34.798Z,19.6
2019-03-04T11:14:24.575Z,19.6
2019-03-04T11:15:14.895Z,19.6
2019-03-04T11:16:04.985Z,19.6
2019-03-04T11:16:55.878Z,19.5
2019-03-04T11:17:45.340Z,19.6
2019-03-04T11:18:35.161Z,19.6
2019-03-04T11:19:25.850Z,19.7
2019-03-04T11:20:14.705Z,19.7
2019-03-04T11:21:05.600Z,19.8
2019-03-04T11:21:55.445Z,19.9
2019-03-04T11:22:45.420Z,19.9
2019-03-04T11:23:36.342Z,20
2019-03-04T11:24:26.400Z,20.1
2019-03-04T11:25:15.642Z,20.1
2019-03-04T11:26:05.977Z,20.3
2019-03-04T11:26:56.562Z,20.3
2019-03-04T11:27:45.774Z,20.3
2019-03-04T11:28:36.404Z,20.3
2019-03-04T11:29:26.519Z,20.4
2019-03-04T11:30:16.512Z,20.4
2019-03-04T11:31:06.052Z,20.4
2019-03-04T11:31:55.809Z,20.5
2019-03-04T11:32:46.169Z,20.5
2019-03-04T11:33:36.172Z,20.6
2019-03-04T11:34:26.301Z,20.6
2019-03-04T11:35:16.029Z,20.7
2019-03-04T11:36:07.307Z,20.8
2019-03-04T11:36:56.152Z,20.8
2019-03-04T11:37:47.049Z,20.8
2019-03-04T11:38:36.532Z,20.9
2019-03-04T11:39:26.936Z,20.9
2019-03-04T11:40:16.914Z,20.9
2019-03-04T11:41:06.999Z,20.9
2019-03-04T11:41:56.769Z,20.9
2019-03-04T11:42:47.659Z,20.9
2019-03-04T11:43:36.622Z,20.8
2019-03-04T11:44:27.514Z,20.8
2019-03-04T11:45:17.086Z,20.8
2019-03-04T11:46:07.341Z,20.9
2019-03-04T11:46:57.148Z,20.9
2019-03-04T11:47:47.438Z,20.9
2019-03-04T11:48:37.581Z,20.9
2019-03-04T11:49:27.069Z,20.9
2019-03-04T11:50:17.168Z,20.9
2019-03-04T11:51:07.721Z,20.9
2019-03-04T11:51:57.510Z,20.9
2019-03-04T11:52:48.088Z,20.8
2019-03-04T11:53:37.581Z,20.9
2019-03-04T11:54:27.711Z,20.8
2019-03-04T11:55:17.793Z,20.8
2019-03-04T11:56:08.346Z,20.8
2019-03-04T11:56:58.110Z,20.8
2019-03-04T11:57:48.446Z,20.8
2019-03-04T11:58:38.228Z,20.8
2019-03-04T11:59:28.345Z,20.8
2019-03-04T12:00:17.798Z,20.8
2019-03-04T12:01:07.935Z,20.8
2019-03-04T12:01:57.945Z,20.8
2019-03-04T12:02:47.978Z,20.8
2019-03-04T12:03:38.852Z,20.8
2019-03-04T12:04:28.941Z,20.8
2019-03-04T12:06:50.126Z,20.8
2019-03-04T12:07:39.558Z,20.8
2019-03-04T12:08:30.435Z,20.8
2019-03-04T12:09:20.522Z,20.8
2019-03-04T12:10:10.875Z,20.8
2019-03-04T12:11:00.594Z,20.8
2019-03-04T12:11:50.365Z,20.8
2019-03-04T12:12:40.450Z,20.8
2019-03-04T12:13:30.519Z,20.8
2019-03-04T12:14:21.087Z,20.9
2019-03-04T12:15:10.387Z,20.9
2019-03-04T12:16:00.962Z,20.9
2019-03-04T12:16:50.789Z,20.9
2019-03-04T12:17:40.595Z,20.9
2019-03-04T12:18:30.935Z,20.9
2019-03-04T12:19:20.690Z,20.9
2019-03-04T12:20:11.318Z,20.9
2019-03-04T12:21:01.562Z,20.9
2019-03-04T12:21:51.649Z,20.9
2019-03-04T12:22:41.119Z,20.9
2019-03-04T12:23:31.782Z,20.9
2019-03-04T12:24:21.878Z,20.9
2019-03-04T12:25:11.381Z,20.9
2019-03-04T12:26:00.584Z,20.9
2019-03-04T12:26:51.987Z,20.9
2019-03-04T12:27:41.311Z,20.9
2019-03-04T12:28:31.829Z,20.8
2019-03-04T12:29:22.197Z,20.8
2019-03-04T12:30:11.176Z,20.8
2019-03-04T12:31:02.560Z,20.8
2019-03-04T12:31:51.319Z,20.8
2019-03-04T12:32:42.421Z,20.7
2019-03-04T12:33:32.709Z,20.7
2019-03-04T12:34:31.971Z,20.7
2019-03-04T12:35:11.743Z,20.7
2019-03-04T12:36:02.083Z,20.7
2019-03-04T12:36:52.151Z,20.7
2019-03-04T12:37:43.041Z,20.7
2019-03-04T12:38:33.168Z,20.7
2019-03-04T12:39:22.583Z,20.7
2019-03-04T12:40:12.788Z,20.7
2019-03-04T12:41:02.980Z,20.7
2019-03-04T12:41:55.535Z,20.7
2019-03-04T12:42:43.145Z,20.7
2019-03-04T12:43:32.905Z,20.6
2019-03-04T12:44:21.858Z,20.6
2019-03-04T12:45:13.260Z,20.6
2019-03-04T12:46:02.223Z,20.6
2019-03-04T12:46:53.168Z,20.6
2019-03-04T12:47:43.466Z,20.6
2019-03-04T12:48:33.293Z,20.6
2019-03-04T12:49:23.900Z,20.6
2019-03-04T12:50:12.551Z,20.6
2019-03-04T12:51:03.207Z,20.6
2019-03-04T12:51:52.663Z,20.6
2019-03-04T12:52:43.289Z,20.7
2019-03-04T12:53:44.181Z,20.7
2019-03-04T12:54:23.357Z,20.7
2019-03-04T12:55:13.230Z,20.8
2019-03-04T12:56:02.926Z,20.8
2019-03-04T12:56:53.592Z,20.8
2019-03-04T12:57:43.593Z,20.8
2019-03-04T12:58:33.673Z,20.8
2019-03-04T12:59:22.717Z,20.8
2019-03-04T13:00:12.560Z,20.8
2019-03-04T13:01:03.857Z,20.8
2019-03-04T13:01:54.144Z,20.8
2019-03-04T13:02:44.216Z,20.7
2019-03-04T13:03:34.019Z,20.7
2019-03-04T13:04:24.064Z,20.6
2019-03-04T13:05:13.642Z,20.6
2019-03-04T13:06:03.919Z,20.6
2019-03-04T13:06:54.517Z,20.6
2019-03-04T13:07:44.879Z,20.6
2019-03-04T13:08:35.189Z,20.6
2019-03-04T13:09:23.923Z,20.6
2019-03-04T13:10:14.524Z,20.6
2019-03-04T13:11:05.092Z,20.6
2019-03-04T13:11:54.066Z,20.6
2019-03-04T13:12:44.976Z,20.6
2019-03-04T13:13:34.237Z,20.6
2019-03-04T13:14:25.069Z,20.6
2019-03-04T13:15:14.573Z,20.6
2019-03-04T13:16:04.404Z,20.6
2019-03-04T13:16:55.539Z,20.6
2019-03-04T13:17:45.046Z,20.6
2019-03-04T13:18:35.969Z,20.6
2019-03-04T13:19:24.946Z,20.6
2019-03-04T13:20:15.181Z,20.6
2019-03-04T13:21:05.265Z,20.6
2019-03-04T13:21:54.503Z,20.6
2019-03-04T13:22:45.978Z,20.6
2019-03-04T13:23:35.141Z,20.6
2019-03-04T13:24:25.601Z,20.6
2019-03-04T13:25:15.276Z,20.6
2019-03-04T13:26:05.605Z,20.6
2019-03-04T13:26:55.923Z,20.6
2019-03-04T13:27:44.658Z,20.6
2019-03-04T13:28:35.493Z,20.6
2019-03-04T13:29:26.399Z,20.6
2019-03-04T13:30:15.910Z,20.6
2019-03-04T13:31:21.168Z,20.6
2019-03-04T13:31:56.373Z,20.6
2019-03-04T13:32:46.392Z,20.6
2019-03-04T13:33:37.008Z,20.7
2019-03-04T13:34:25.505Z,20.7
2019-03-04T13:35:27.308Z,20.8
2019-03-04T13:36:05.483Z,20.8
2019-03-04T13:36:56.786Z,20.8
2019-03-04T13:37:46.538Z,20.8
2019-03-04T13:38:36.812Z,20.8
2019-03-04T13:39:26.696Z,20.8
2019-03-04T13:40:15.833Z,20.8
2019-03-04T13:41:06.202Z,20.8
2019-03-04T13:41:56.290Z,20.8
2019-03-04T13:42:46.634Z,20.8
2019-03-04T13:43:36.377Z,20.8
2019-03-04T13:44:27.297Z,20.8
2019-03-04T13:45:16.322Z,20.8
2019-03-04T13:46:06.544Z,20.8
2019-03-04T13:46:56.339Z,20.7
2019-03-04T13:47:47.759Z,20.7
2019-03-04T13:48:37.264Z,20.7
2019-03-04T13:49:26.525Z,20.7
2019-03-04T13:50:17.569Z,20.7
2019-03-04T13:51:08.211Z,20.7
2019-03-04T13:51:56.667Z,20.7
2019-03-04T13:52:48.297Z,20.7
2019-03-04T13:53:37.847Z,20.7
2019-03-04T13:54:27.873Z,20.7
2019-03-04T13:55:20.310Z,20.7
2019-03-04T13:56:06.974Z,20.7
2019-03-04T13:56:56.989Z,20.7
2019-03-04T13:57:47.554Z,20.7
2019-03-04T13:58:38.166Z,20.7
2019-03-04T13:59:28.834Z,20.7
2019-03-04T14:00:17.564Z,20.7
2019-03-04T14:01:08.324Z,20.6
2019-03-04T14:01:58.714Z,20.7
2019-03-04T14:02:48.476Z,20.7
2019-03-04T14:03:37.419Z,20.7
2019-03-04T14:04:28.913Z,20.6
2019-03-04T14:05:18.992Z,20.6
2019-03-04T14:08:07.184Z,20.6
2019-03-04T16:07:49.839Z,20.9
2019-03-04T16:08:39.899Z,20.8
2019-03-04T16:09:29.807Z,20.8
2019-03-04T16:10:18.731Z,20.8
2019-03-04T16:11:09.784Z,20.8
2019-03-04T16:11:59.854Z,20.8
2019-03-04T16:12:50.447Z,20.8
2019-03-04T16:13:39.495Z,20.8
2019-03-04T16:14:30.617Z,20.9
2019-03-04T16:15:20.164Z,20.9
2019-03-04T16:16:10.242Z,20.9
2019-03-04T16:17:01.029Z,21
2019-03-04T16:17:49.536Z,21
2019-03-04T16:18:41.232Z,20.9
2019-03-04T16:19:31.227Z,21
2019-03-04T16:20:21.578Z,21.1
2019-03-04T16:21:10.614Z,21.1
2019-03-04T16:22:01.387Z,21.1
2019-03-04T16:24:31.593Z,21
2019-03-04T16:25:20.888Z,21
2019-03-04T16:26:10.636Z,21.1
2019-03-04T16:27:00.704Z,21
2019-03-04T16:27:51.006Z,20.9
2019-03-04T16:28:41.106Z,20.9
2019-03-04T16:29:41.229Z,20.8
2019-03-04T16:30:21.764Z,20.8
2019-03-04T16:31:10.733Z,20.7
2019-03-04T16:32:02.141Z,20.6
2019-03-04T16:32:51.396Z,20.6
2019-03-04T16:33:43.291Z,20.6
2019-03-04T16:34:31.808Z,20.6
2019-03-04T16:35:20.824Z,20.4
2019-03-04T16:36:11.691Z,20.4
2019-03-04T16:37:00.913Z,20.4
2019-03-04T16:37:51.538Z,20.4
2019-03-04T16:38:41.027Z,20.3
2019-03-04T16:39:31.393Z,20.3
2019-03-04T16:40:21.170Z,20.3
2019-03-04T16:41:11.203Z,20.3
2019-03-04T16:42:16.494Z,20.3
2019-03-04T16:42:51.536Z,20.3